Time;durP1;ratioP1;P1;durP2;ratioP2;P2;SDS_P1;SDS_P2;PMS_P1;PMS_P2;Temp;Humidity;BMP_temperature;BMP_pressure;BME280_temperature;BME280_humidity;BME280_pressure;Samples;Min_cycle;Max_cycle;Signal;HPM_P1;HPM_P2
2023/09/11 00:01:00;;;;;;;14.13;8.63;;;21.20;1.00;;;;;;6194165;23;20208;-90
2023/09/11 00:03:26;;;;;;;12.50;9.10;;;21.20;99.90;;;;;;6217806;23;20484;-91
2023/09/11 00:05:51;;;;;;;14.17;8.47;;;21.10;99.90;;;;;;6216455;23;20177;-91
2023/09/11 00:08:17;;;;;;;15.97;8.23;;;21.00;1.00;;;;;;6214850;23;20656;-89
2023/09/11 00:10:44;;;;;;;12.27;9.47;;;21.00;1.00;;;;;;6234373;23;20220;-86
2023/09/11 00:13:10;;;;;;;14.33;9.07;;;21.00;1.00;;;;;;6239217;23;20157;-90
2023/09/11 00:15:36;;;;;;;11.43;8.77;;;20.90;99.90;;;;;;6227278;23;20172;-89
2023/09/11 00:18:02;;;;;;;11.37;8.23;;;20.90;99.90;;;;;;6214339;23;20161;-90
2023/09/11 00:20:27;;;;;;;12.53;8.97;;;20.80;99.90;;;;;;6214544;23;20190;-89
2023/09/11 00:22:53;;;;;;;8.60;7.67;;;20.80;26.80;;;;;;6214871;23;20173;-90
2023/09/11 00:25:20;;;;;;;16.67;8.57;;;20.20;1.00;;;;;;6216273;23;20157;-90
2023/09/11 00:27:46;;;;;;;12.77;8.43;;;20.70;1.00;;;;;;6216146;23;20549;-89
2023/09/11 00:30:11;;;;;;;10.10;8.43;;;20.70;1.00;;;;;;6219881;23;20165;-89
2023/09/11 00:32:37;;;;;;;13.07;9.47;;;20.70;1.00;;;;;;6190628;23;20172;-90
2023/09/11 00:35:03;;;;;;;18.40;9.33;;;20.70;93.70;;;;;;6215794;23;20156;-90
2023/09/11 00:37:28;;;;;;;15.07;8.50;;;20.60;99.90;;;;;;6215361;23;20215;-89
2023/09/11 00:39:54;;;;;;;10.10;8.07;;;20.60;99.90;;;;;;6216805;23;20157;-90
2023/09/11 00:42:20;;;;;;;14.90;8.70;;;20.60;99.90;;;;;;6192165;23;20189;-89
2023/09/11 00:44:45;;;;;;;12.27;8.47;;;20.50;99.90;;;;;;6217186;23;20165;-90
2023/09/11 00:47:11;;;;;;;11.73;8.80;;;20.50;99.90;;;;;;6215825;23;20183;-90
2023/09/11 00:49:37;;;;;;;12.23;8.07;;;20.50;99.90;;;;;;6216187;23;20157;-90
2023/09/11 00:52:03;;;;;;;11.73;8.60;;;20.50;99.90;;;;;;6224751;23;20161;-89
2023/09/11 00:54:31;;;;;;;11.03;8.03;;;20.50;99.90;;;;;;6220296;23;20161;-90
2023/09/11 00:56:57;;;;;;;12.03;8.17;;;20.40;99.90;;;;;;6217072;23;20184;-90
2023/09/11 00:59:23;;;;;;;10.80;8.37;;;20.40;1.00;;;;;;6192331;23;20216;-90
2023/09/11 01:01:49;;;;;;;13.37;8.13;;;20.30;1.00;;;;;;6193420;23;20172;-88
2023/09/11 01:04:16;;;;;;;11.60;8.93;;;20.30;1.00;;;;;;6217535;23;20168;-90
2023/09/11 01:06:42;;;;;;;16.50;9.10;;;20.30;1.00;;;;;;6218702;23;20177;-91
2023/09/11 01:09:08;;;;;;;19.80;9.27;;;20.20;1.00;;;;;;6216696;23;20164;-91
2023/09/11 01:11:34;;;;;;;15.20;8.77;;;20.20;99.90;;;;;;6194449;23;20204;-87
2023/09/11 01:14:00;;;;;;;16.37;8.07;;;20.20;99.90;;;;;;6217131;23;20161;-92
2023/09/11 01:16:39;;;;;;;11.53;8.20;;;20.20;99.90;;;;;;6167909;23;20260;-89
2023/09/11 01:19:31;;;;;;;10.53;8.00;;;20.20;99.90;;;;;;6216984;23;20498;-89
2023/09/11 01:22:09;;;;;;;13.50;8.30;;;20.10;99.90;;;;;;6194029;23;20173;-91
2023/09/11 01:24:55;;;;;;;13.40;8.43;;;20.10;99.90;;;;;;6194285;23;20145;-87
2023/09/11 01:27:41;;;;;;;13.67;8.70;;;20.00;99.90;;;;;;6193705;23;20259;-91
2023/09/11 01:30:08;;;;;;;11.67;7.83;;;20.00;99.90;;;;;;6216789;23;20176;-90
2023/09/11 01:32:35;;;;;;;12.13;8.10;;;20.00;99.90;;;;;;6216331;23;20160;-89
2023/09/11 01:35:01;;;;;;;10.83;7.40;;;19.90;99.90;;;;;;6216376;23;20161;-90
2023/09/11 01:37:27;;;;;;;12.40;8.73;;;19.90;99.90;;;;;;6193533;23;20195;-90
2023/09/11 01:39:55;;;;;;;18.03;8.13;;;19.90;99.90;;;;;;6193418;23;20156;-87
2023/09/11 01:42:29;;;;;;;17.17;8.03;;;19.80;99.90;;;;;;6193078;23;20628;-89
2023/09/11 01:44:58;;;;;;;14.43;8.90;;;19.80;99.90;;;;;;6216834;23;20473;-90
2023/09/11 01:47:25;;;;;;;16.07;9.00;;;19.80;99.90;;;;;;6216146;23;20229;-91
2023/09/11 01:49:54;;;;;;;10.57;7.93;;;19.70;99.90;;;;;;6217451;23;20164;-89
2023/09/11 01:52:22;;;;;;;8.80;7.83;;;19.70;99.90;;;;;;6216231;23;20192;-90
2023/09/11 01:54:49;;;;;;;14.03;7.60;;;19.60;99.90;;;;;;6216233;23;20164;-90
2023/09/11 01:57:15;;;;;;;14.33;8.40;;;19.60;99.90;;;;;;6216379;23;20188;-90
2023/09/11 01:59:41;;;;;;;13.80;8.10;;;19.60;99.90;;;;;;6216979;23;20165;-92
2023/09/11 02:02:07;;;;;;;12.07;8.87;;;19.60;99.90;;;;;;6215754;23;20195;-89
2023/09/11 02:04:32;;;;;;;9.87;8.17;;;19.50;99.90;;;;;;6216062;23;20161;-90
2023/09/11 02:06:58;;;;;;;13.13;7.87;;;19.50;99.90;;;;;;6215731;23;20208;-92
2023/09/11 02:09:23;;;;;;;10.83;7.57;;;19.40;99.90;;;;;;6215970;23;20156;-89
2023/09/11 02:11:50;;;;;;;15.37;7.83;;;19.40;99.90;;;;;;6192983;23;20216;-92
2023/09/11 02:14:15;;;;;;;10.83;8.60;;;19.40;1.00;;;;;;6215935;23;20161;-88
2023/09/11 02:16:41;;;;;;;10.07;8.27;;;19.40;1.00;;;;;;6215324;23;20177;-91
2023/09/11 02:19:07;;;;;;;11.97;7.83;;;19.30;1.00;;;;;;6215219;23;20161;-90
2023/09/11 02:21:32;;;;;;;12.53;8.30;;;19.30;1.00;;;;;;6192299;23;20260;-90
2023/09/11 02:23:58;;;;;;;13.20;8.17;;;19.30;1.00;;;;;;6217307;23;20161;-92
2023/09/11 02:26:25;;;;;;;11.43;8.17;;;19.20;1.00;;;;;;6193003;23;20204;-91
2023/09/11 02:28:51;;;;;;;11.33;8.40;;;19.20;1.00;;;;;;6215129;23;20157;-89
2023/09/11 02:31:18;;;;;;;10.20;8.13;;;19.20;1.00;;;;;;6213928;23;20245;-89
2023/09/11 02:33:44;;;;;;;12.93;8.63;;;19.20;1.00;;;;;;6229055;23;20168;-91
2023/09/11 02:36:10;;;;;;;15.90;8.67;;;19.20;1.00;;;;;;6202204;23;20617;-91
2023/09/11 02:38:36;;;;;;;16.43;8.50;;;19.20;1.00;;;;;;6214938;23;20181;-89
2023/09/11 02:41:02;;;;;;;10.67;8.17;;;19.10;1.00;;;;;;6215715;23;20188;-89
2023/09/11 02:43:29;;;;;;;11.77;7.83;;;19.10;1.00;;;;;;6191307;23;20167;-91
2023/09/11 02:45:55;;;;;;;9.93;7.73;;;19.10;1.00;;;;;;6191589;23;20173;-90
2023/09/11 02:48:20;;;;;;;10.67;8.07;;;19.10;1.00;;;;;;6217946;23;20187;-91
2023/09/11 02:50:47;;;;;;;16.53;8.40;;;19.10;1.00;;;;;;6217237;23;20161;-90
2023/09/11 02:53:13;;;;;;;11.10;8.00;;;19.00;1.00;;;;;;6227410;23;20140;-90
2023/09/11 02:55:42;;;;;;;14.73;8.53;;;19.00;1.00;;;;;;6217247;23;20167;-89
2023/09/11 02:58:08;;;;;;;11.07;7.83;;;19.00;1.00;;;;;;6216956;23;20172;-90
2023/09/11 03:00:38;;;;;;;8.73;7.57;;;18.90;1.00;;;;;;6216424;23;20252;-91
2023/09/11 03:03:04;;;;;;;14.10;8.20;;;18.90;1.00;;;;;;6215496;23;20216;-88
2023/09/11 03:05:33;;;;;;;14.33;7.83;;;18.90;1.00;;;;;;6191090;23;20160;-89
2023/09/11 03:08:00;;;;;;;12.87;7.60;;;18.90;1.00;;;;;;6192401;23;20157;-91
2023/09/11 03:10:27;;;;;;;11.37;7.60;;;18.80;1.00;;;;;;6215794;23;20193;-89
2023/09/11 03:12:54;;;;;;;16.50;7.60;;;18.80;1.00;;;;;;6191820;23;20161;-90
2023/09/11 03:15:20;;;;;;;14.03;7.63;;;18.80;1.00;;;;;;6215488;23;20247;-88
2023/09/11 03:17:52;;;;;;;10.93;7.67;;;18.80;1.00;;;;;;6216134;23;20212;-86
2023/09/11 03:20:19;;;;;;;9.40;7.40;;;18.80;1.00;;;;;;6215719;23;20168;-92
2023/09/11 03:22:45;;;;;;;9.47;7.80;;;18.80;1.00;;;;;;6215169;23;20633;-90
2023/09/11 03:25:11;;;;;;;12.00;8.17;;;18.90;1.00;;;;;;6216757;23;20163;-89
2023/09/11 03:27:37;;;;;;;13.37;7.60;;;18.70;1.00;;;;;;6215355;23;20181;-89
2023/09/11 03:30:03;;;;;;;8.70;7.33;;;18.70;1.00;;;;;;6215631;23;20454;-85
2023/09/11 03:32:29;;;;;;;18.37;8.27;;;18.60;1.00;;;;;;6190795;23;20160;-90
2023/09/11 03:34:56;;;;;;;11.77;8.00;;;18.60;1.00;;;;;;6191833;23;20158;-90
2023/09/11 03:37:22;;;;;;;12.27;8.60;;;18.60;1.00;;;;;;6215101;23;20192;-91
2023/09/11 03:39:48;;;;;;;11.23;7.83;;;18.60;1.00;;;;;;6215640;23;20168;-88
2023/09/11 03:42:13;;;;;;;11.90;8.47;;;18.50;1.00;;;;;;6193206;23;20312;-90
2023/09/11 03:44:39;;;;;;;14.93;9.07;;;18.50;1.00;;;;;;6216808;23;20157;-91
2023/09/11 03:47:05;;;;;;;19.20;8.53;;;18.30;1.00;;;;;;6216443;23;20212;-89
2023/09/11 03:49:30;;;;;;;23.97;8.97;;;18.40;1.00;;;;;;6219606;23;20157;-90
2023/09/11 03:51:57;;;;;;;18.57;8.13;;;18.40;1.00;;;;;;6192538;23;20160;-90
2023/09/11 03:54:23;;;;;;;21.13;9.33;;;18.40;1.00;;;;;;6217961;23;20181;-91
2023/09/11 03:56:49;;;;;;;13.93;7.60;;;18.40;1.00;;;;;;6217573;23;20181;-90
2023/09/11 03:59:17;;;;;;;16.97;7.70;;;18.40;1.00;;;;;;6195940;23;20157;-90
2023/09/11 04:01:42;;;;;;;18.07;7.50;;;18.40;1.00;;;;;;6190270;23;20504;-92
2023/09/11 04:04:08;;;;;;;18.33;7.63;;;18.40;1.00;;;;;;6215227;23;20211;-91
2023/09/11 04:06:33;;;;;;;15.87;8.23;;;18.30;1.00;;;;;;6190986;23;20176;-88
2023/09/11 04:08:59;;;;;;;15.53;8.63;;;18.30;1.00;;;;;;6216421;23;20536;-91
2023/09/11 04:11:25;;;;;;;10.13;8.07;;;18.30;1.00;;;;;;6191933;23;20161;-91
2023/09/11 04:13:50;;;;;;;13.93;8.20;;;18.40;1.00;;;;;;6215283;23;20172;-90
2023/09/11 04:16:16;;;;;;;12.87;7.60;;;18.30;1.00;;;;;;6214671;23;20188;-86
2023/09/11 04:18:42;;;;;;;17.87;8.13;;;18.20;1.00;;;;;;6190255;23;20524;-90
2023/09/11 04:21:08;;;;;;;13.43;8.33;;;18.20;1.00;;;;;;6213782;23;20637;-91
2023/09/11 04:23:34;;;;;;;13.77;7.67;;;18.10;1.00;;;;;;6214150;23;20241;-89
2023/09/11 04:26:00;;;;;;;11.03;7.07;;;18.20;1.00;;;;;;6213411;23;20173;-92
2023/09/11 04:28:26;;;;;;;11.13;7.40;;;18.10;1.00;;;;;;6190266;23;20228;-90
2023/09/11 04:30:52;;;;;;;13.87;7.30;;;18.30;1.00;;;;;;6190186;23;20153;-90
2023/09/11 04:33:18;;;;;;;14.47;8.00;;;18.10;1.00;;;;;;6194266;23;20153;-91
2023/09/11 04:35:44;;;;;;;12.90;6.93;;;18.20;1.00;;;;;;6192142;23;20145;-90
2023/09/11 04:38:10;;;;;;;9.60;7.07;;;18.00;1.00;;;;;;6189042;23;20511;-91
2023/09/11 04:40:37;;;;;;;10.43;7.27;;;18.00;1.00;;;;;;6189968;23;20593;-89
2023/09/11 04:43:02;;;;;;;15.60;7.50;;;18.00;1.00;;;;;;6213312;23;20188;-90
2023/09/11 04:45:28;;;;;;;9.50;7.27;;;17.90;1.00;;;;;;6192857;23;20160;-89
2023/09/11 04:47:53;;;;;;;12.50;7.67;;;17.90;1.00;;;;;;6215392;23;20161;-89
2023/09/11 04:50:19;;;;;;;11.83;7.23;;;17.90;1.00;;;;;;6191322;23;20515;-90
2023/09/11 04:52:45;;;;;;;13.37;7.50;;;17.90;1.00;;;;;;6195951;23;20141;-90
2023/09/11 04:55:11;;;;;;;13.63;7.37;;;17.70;1.00;;;;;;6196630;23;20168;-90
2023/09/11 04:57:37;;;;;;;16.87;7.77;;;18.00;1.00;;;;;;6214060;23;20187;-91
2023/09/11 05:00:10;;;;;;;11.63;7.00;;;17.80;1.00;;;;;;6214955;23;20468;-90
2023/09/11 05:02:36;;;;;;;12.90;7.40;;;17.80;1.00;;;;;;6215376;23;20185;-90
2023/09/11 05:05:05;;;;;;;9.63;7.37;;;17.80;1.00;;;;;;6213753;23;20213;-90
2023/09/11 05:07:31;;;;;;;15.27;7.37;;;17.80;1.00;;;;;;6213914;23;20173;-89
2023/09/11 05:09:57;;;;;;;15.63;7.97;;;17.70;1.00;;;;;;6214786;23;20664;-92
2023/09/11 05:12:22;;;;;;;10.30;7.10;;;17.60;1.00;;;;;;6215008;23;20161;-89
2023/09/11 05:14:48;;;;;;;11.60;6.93;;;18.50;1.00;;;;;;6215812;23;20292;-90
2023/09/11 05:17:14;;;;;;;12.13;7.37;;;17.70;1.00;;;;;;6190160;23;20645;-92
2023/09/11 05:19:39;;;;;;;15.10;7.20;;;17.60;1.00;;;;;;6191102;23;20160;-91
2023/09/11 05:22:05;;;;;;;11.83;7.50;;;17.70;1.00;;;;;;6215871;23;20184;-90
2023/09/11 05:24:32;;;;;;;9.10;6.60;;;17.70;1.00;;;;;;6190504;23;20156;-91
2023/09/11 05:26:57;;;;;;;15.33;7.57;;;18.00;1.00;;;;;;6215629;23;20252;-91
2023/09/11 05:29:23;;;;;;;10.53;7.03;;;17.60;1.00;;;;;;6193756;23;20208;-88
2023/09/11 05:31:50;;;;;;;16.20;6.83;;;17.60;1.00;;;;;;6221315;23;20164;-88
2023/09/11 05:34:17;;;;;;;11.17;7.50;;;17.70;1.00;;;;;;6196495;23;20181;-89
2023/09/11 05:36:42;;;;;;;18.27;7.93;;;18.60;1.00;;;;;;6218529;23;20268;-88
2023/09/11 05:39:08;;;;;;;11.93;7.40;;;18.30;1.00;;;;;;6197054;23;20173;-88
2023/09/11 05:41:35;;;;;;;15.37;7.77;;;17.90;1.00;;;;;;6199061;23;20180;-88
2023/09/11 05:44:03;;;;;;;14.50;7.47;;;17.60;1.00;;;;;;6175034;23;20257;-88
2023/09/11 05:46:29;;;;;;;9.50;7.17;;;17.70;1.00;;;;;;6200307;23;20173;-90
2023/09/11 05:48:55;;;;;;;8.87;7.00;;;18.00;1.00;;;;;;6222857;23;20223;-89
2023/09/11 05:51:22;;;;;;;10.77;7.03;;;17.60;1.00;;;;;;6223076;23;20161;-89
2023/09/11 05:53:47;;;;;;;9.50;6.87;;;17.90;1.00;;;;;;6197363;23;20251;-89
2023/09/11 05:56:13;;;;;;;11.23;7.13;;;18.30;1.00;;;;;;6199626;23;20698;-89
2023/09/11 05:58:38;;;;;;;12.13;7.90;;;18.60;1.00;;;;;;6199965;23;20586;-89
2023/09/11 06:01:05;;;;;;;15.30;7.87;;;18.20;1.00;;;;;;6199630;23;20216;-88
2023/09/11 06:03:31;;;;;;;13.43;7.67;;;17.80;1.00;;;;;;6199677;23;20157;-87
2023/09/11 06:05:58;;;;;;;13.67;7.77;;;17.90;1.00;;;;;;6199046;23;20165;-92
2023/09/11 06:08:24;;;;;;;14.10;8.47;;;17.90;1.00;;;;;;6199358;23;20149;-90
2023/09/11 06:10:49;;;;;;;12.93;7.97;;;17.90;1.00;;;;;;6197983;23;20439;-91
2023/09/11 06:13:15;;;;;;;11.83;8.67;;;18.30;1.00;;;;;;6197417;23;20168;-89
2023/09/11 06:15:40;;;;;;;11.13;8.53;;;18.70;1.00;;;;;;6199290;23;20157;-89
2023/09/11 06:18:06;;;;;;;12.97;9.40;;;18.30;1.00;;;;;;6199086;23;20639;-90
2023/09/11 06:20:32;;;;;;;15.57;8.47;;;18.10;1.00;;;;;;6197408;23;20161;-88
2023/09/11 06:22:57;;;;;;;12.73;9.07;;;19.30;1.00;;;;;;6196704;23;20244;-87
2023/09/11 06:25:23;;;;;;;15.40;8.50;;;18.30;1.00;;;;;;6226174;23;20177;-89
2023/09/11 06:27:49;;;;;;;11.13;8.93;;;18.70;1.00;;;;;;6222746;23;20656;-90
2023/09/11 06:30:14;;;;;;;15.40;8.67;;;18.50;1.00;;;;;;6223334;23;20522;-87
2023/09/11 06:32:42;;;;;;;16.87;8.30;;;18.70;1.00;;;;;;6221976;23;20161;-89
2023/09/11 06:35:08;;;;;;;15.70;8.17;;;18.90;1.00;;;;;;6223058;23;20164;-89
2023/09/11 06:37:35;;;;;;;18.77;8.20;;;18.80;1.00;;;;;;6197023;23;20194;-89
2023/09/11 06:40:01;;;;;;;18.67;9.90;;;19.00;1.00;;;;;;6223410;23;20161;-91
2023/09/11 06:42:27;;;;;;;24.00;9.27;;;19.10;1.00;;;;;;6198570;23;20189;-91
2023/09/11 06:44:54;;;;;;;12.90;8.03;;;19.20;1.00;;;;;;6196888;23;20242;-89
2023/09/11 06:47:20;;;;;;;16.00;8.37;;;19.40;1.00;;;;;;6219334;23;20181;-88
2023/09/11 06:49:46;;;;;;;22.47;8.43;;;19.60;1.00;;;;;;6219775;23;20240;-89
2023/09/11 06:52:16;;;;;;;15.20;8.87;;;19.70;1.00;;;;;;6197887;23;20195;-88
2023/09/11 06:54:43;;;;;;;19.57;8.57;;;19.80;1.00;;;;;;6206401;23;20153;-90
2023/09/11 06:57:08;;;;;;;16.77;8.90;;;20.00;1.00;;;;;;6199413;23;20232;-91
2023/09/11 06:59:35;;;;;;;15.40;8.97;;;20.10;1.00;;;;;;6221539;23;20622;-88
2023/09/11 07:02:01;;;;;;;23.30;9.20;;;20.30;1.00;;;;;;6221908;23;20212;-89
2023/09/11 07:04:27;;;;;;;16.73;10.10;;;21.60;1.00;;;;;;6221583;23;20160;-89
2023/09/11 07:06:56;;;;;;;13.00;8.67;;;20.50;1.00;;;;;;6223057;23;20184;-89
2023/09/11 07:09:21;;;;;;;23.87;9.57;;;20.70;1.00;;;;;;6197559;23;20153;-88
2023/09/11 07:11:47;;;;;;;18.30;8.80;;;20.90;1.00;;;;;;6200495;23;20160;-89
2023/09/11 07:14:24;;;;;;;22.23;8.80;;;21.00;1.00;;;;;;6199547;23;20210;-89
2023/09/11 07:16:50;;;;;;;10.80;7.70;;;21.20;1.00;;;;;;6223318;23;20184;-89
2023/09/11 07:19:16;;;;;;;25.17;9.37;;;21.40;1.00;;;;;;6197427;23;20211;-88
2023/09/11 07:21:44;;;;;;;16.50;8.97;;;21.60;1.00;;;;;;6224438;23;20200;-88
2023/09/11 07:24:09;;;;;;;27.67;8.97;;;21.80;1.00;;;;;;6200233;23;20608;-88
2023/09/11 07:26:35;;;;;;;21.43;8.00;;;21.80;1.00;;;;;;6198334;23;20181;-89
2023/09/11 07:29:03;;;;;;;18.00;8.03;;;22.20;1.00;;;;;;6222270;23;20168;-89
2023/09/11 07:31:30;;;;;;;20.37;7.53;;;22.30;1.00;;;;;;6199633;23;20252;-88
2023/09/11 07:33:56;;;;;;;15.93;7.37;;;22.50;1.00;;;;;;6222182;23;20244;-88
2023/09/11 07:36:22;;;;;;;23.47;7.00;;;22.70;1.00;;;;;;6222272;23;20184;-89
2023/09/11 07:38:48;;;;;;;23.50;8.90;;;22.80;1.00;;;;;;6220159;23;20211;-89
2023/09/11 07:41:16;;;;;;;19.47;7.63;;;23.00;1.00;;;;;;6220558;23;20704;-90
2023/09/11 07:43:49;;;;;;;26.33;8.20;;;23.10;1.00;;;;;;6196109;23;20165;-89
2023/09/11 07:46:19;;;;;;;22.93;7.40;;;23.30;1.00;;;;;;6196259;23;20676;-91
2023/09/11 07:48:45;;;;;;;16.80;7.23;;;23.40;1.00;;;;;;6221500;23;20161;-90
2023/09/11 07:51:12;;;;;;;11.57;6.43;;;23.60;1.00;;;;;;6195124;23;20161;-88
2023/09/11 07:53:40;;;;;;;18.33;6.97;;;23.80;99.90;;;;;;6195553;23;20240;-89
2023/09/11 07:56:07;;;;;;;13.97;7.07;;;23.90;99.90;;;;;;6219897;23;20187;-89
2023/09/11 07:58:38;;;;;;;20.03;6.90;;;24.10;1.00;;;;;;6197440;23;20165;-89
2023/09/11 08:01:04;;;;;;;13.43;6.83;;;24.30;99.90;;;;;;6194743;23;20276;-89
2023/09/11 08:03:32;;;;;;;28.90;7.00;;;24.40;1.00;;;;;;6194588;23;20157;-86
2023/09/11 08:05:59;;;;;;;15.77;5.67;;;24.60;99.90;;;;;;6207215;23;20157;-88
2023/09/11 08:08:26;;;;;;;16.60;5.37;;;24.80;99.90;;;;;;6196759;23;20149;-88
2023/09/11 08:10:52;;;;;;;10.17;4.97;;;24.90;1.00;;;;;;6193678;23;20160;-88
2023/09/11 08:13:17;;;;;;;17.30;5.23;;;25.10;1.00;;;;;;6219287;23;20161;-88
2023/09/11 08:15:43;;;;;;;12.10;5.10;;;25.20;1.00;;;;;;6194751;23;20153;-90
2023/09/11 08:18:09;;;;;;;18.37;5.47;;;25.40;32.90;;;;;;6194298;23;20172;-88
2023/09/11 08:20:35;;;;;;;12.83;5.20;;;25.40;1.00;;;;;;6193728;23;20495;-89
2023/09/11 08:23:02;;;;;;;14.23;4.97;;;25.60;99.90;;;;;;6195800;23;20192;-89
2023/09/11 08:25:30;;;;;;;15.70;5.13;;;25.70;1.00;;;;;;6193849;23;20149;-87
2023/09/11 08:27:56;;;;;;;15.53;5.77;;;25.80;1.00;;;;;;6217410;23;20167;-88
2023/09/11 08:30:21;;;;;;;12.13;5.03;;;25.90;1.00;;;;;;6195176;23;20181;-88
2023/09/11 08:32:47;;;;;;;11.67;5.00;;;26.00;99.90;;;;;;6194227;23;20157;-88
2023/09/11 08:35:13;;;;;;;11.07;5.30;;;26.00;99.90;;;;;;6217230;23;20156;-87
2023/09/11 08:37:38;;;;;;;15.90;6.07;;;26.10;99.90;;;;;;6192668;23;20192;-89
2023/09/11 08:40:04;;;;;;;9.03;4.90;;;26.20;99.90;;;;;;6193826;23;20221;-88
2023/09/11 08:42:30;;;;;;;9.67;4.80;;;26.30;10.90;;;;;;6218721;23;20241;-87
2023/09/11 08:44:56;;;;;;;10.77;4.93;;;26.40;1.00;;;;;;6192373;23;20164;-89
2023/09/11 08:47:28;;;;;;;13.30;4.83;;;26.30;1.00;;;;;;6216635;23;20526;-87
2023/09/11 08:49:57;;;;;;;12.97;4.87;;;26.40;1.00;;;;;;6196089;23;20129;-89
2023/09/11 08:52:23;;;;;;;13.07;4.80;;;26.50;1.00;;;;;;6222613;23;20168;-90
2023/09/11 08:54:53;;;;;;;13.27;4.43;;;26.50;1.00;;;;;;6193564;23;20161;-89
2023/09/11 08:57:21;;;;;;;11.50;4.27;;;26.60;1.00;;;;;;6195034;23;20636;-88
2023/09/11 08:59:54;;;;;;;12.57;4.40;;;26.70;1.00;;;;;;6219730;23;20165;-88
2023/09/11 09:02:21;;;;;;;12.07;4.97;;;26.80;1.00;;;;;;6196422;23;20169;-88
2023/09/11 09:04:49;;;;;;;8.53;4.50;;;26.90;1.00;;;;;;6196812;23;20177;-88
2023/09/11 09:07:17;;;;;;;12.13;4.57;;;27.00;1.00;;;;;;6195582;23;20207;-88
2023/09/11 09:09:43;;;;;;;16.57;5.10;;;27.10;1.00;;;;;;6196462;23;20207;-90
2023/09/11 09:12:10;;;;;;;15.00;4.67;;;27.20;1.00;;;;;;6219667;23;20157;-89
2023/09/11 09:14:39;;;;;;;11.83;4.80;;;27.30;1.00;;;;;;6197458;23;20176;-89
2023/09/11 09:17:05;;;;;;;13.10;4.67;;;27.40;1.00;;;;;;6196683;23;20269;-90
2023/09/11 09:19:31;;;;;;;6.30;4.33;;;27.50;1.00;;;;;;6222265;23;20167;-90
2023/09/11 09:22:06;;;;;;;11.67;4.93;;;27.60;1.00;;;;;;6219662;23;20185;-90
2023/09/11 09:24:32;;;;;;;10.07;4.20;;;27.70;1.00;;;;;;6195350;23;20194;-87
2023/09/11 09:27:05;;;;;;;11.53;5.20;;;27.70;1.00;;;;;;6196708;23;20173;-91
2023/09/11 09:29:35;;;;;;;10.00;4.90;;;27.90;1.00;;;;;;6172978;23;20560;-89
2023/09/11 09:32:05;;;;;;;14.03;4.27;;;27.90;1.00;;;;;;6198740;23;20167;-89
2023/09/11 09:34:33;;;;;;;7.60;4.27;;;27.90;1.00;;;;;;6198311;23;20157;-87
2023/09/11 09:36:59;;;;;;;13.93;5.03;;;27.90;1.00;;;;;;6193916;23;20191;-89
2023/09/11 09:39:28;;;;;;;13.17;5.07;;;28.00;1.00;;;;;;6220876;23;20633;-88
2023/09/11 09:42:00;;;;;;;19.43;4.87;;;28.00;1.00;;;;;;6221465;23;20189;-88
2023/09/11 09:44:32;;;;;;;11.20;4.93;;;28.10;1.00;;;;;;6195355;23;20161;-89
2023/09/11 09:47:19;;;;;;;8.90;4.80;;;28.10;1.00;;;;;;6220851;23;20177;-90
2023/09/11 09:49:53;;;;;;;15.13;4.10;;;28.20;1.00;;;;;;6198161;23;20171;-89
2023/09/11 09:52:21;;;;;;;15.17;5.27;;;28.20;1.00;;;;;;6198327;23;20164;-88
2023/09/11 09:54:52;;;;;;;7.03;4.40;;;28.40;1.00;;;;;;6233151;23;20545;-89
2023/09/11 09:57:21;;;;;;;12.43;4.60;;;28.50;1.00;;;;;;6195237;23;20204;-87
2023/09/11 09:59:49;;;;;;;7.93;4.53;;;28.50;1.00;;;;;;6193435;23;20642;-87
2023/09/11 10:02:23;;;;;;;8.30;4.53;;;28.50;1.00;;;;;;6194155;23;20185;-88
2023/09/11 10:05:11;;;;;;;11.87;4.17;;;28.60;1.00;;;;;;6195149;23;20164;-89
2023/09/11 10:07:43;;;;;;;8.73;4.63;;;28.60;1.00;;;;;;6196074;23;20169;-90
2023/09/11 10:10:29;;;;;;;11.30;4.53;;;28.60;1.00;;;;;;6196354;23;20590;-91
2023/09/11 10:13:04;;;;;;;6.70;4.53;;;28.70;1.00;;;;;;6195028;23;20217;-90
2023/09/11 10:15:31;;;;;;;7.55;4.75;;;28.70;1.00;;;;;;6198462;23;20153;-86
2023/09/11 10:17:57;;;;;;;10.50;4.35;;;28.80;1.00;;;;;;6218277;23;20168;-88
2023/09/11 10:20:24;;;;;;;11.10;4.47;;;28.90;1.00;;;;;;6195260;23;20211;-85
2023/09/11 10:23:00;;;;;;;12.45;4.38;;;28.90;1.00;;;;;;6216304;23;20206;-87
2023/09/11 10:25:33;;;;;;;10.55;4.20;;;28.90;1.00;;;;;;6192590;23;20164;-89
2023/09/11 10:28:04;;;;;;;9.07;4.43;;;28.90;1.00;;;;;;6216348;23;20152;-88
2023/09/11 10:30:48;;;;;;;14.77;4.78;;;29.10;1.00;;;;;;6188792;23;20161;-86
2023/09/11 10:33:21;;;;;;;11.90;4.25;;;29.20;1.00;;;;;;6220837;23;20156;-90
2023/09/11 10:35:58;;;;;;;12.70;4.97;;;29.30;1.00;;;;;;6196219;23;20176;-86
2023/09/11 10:38:26;;;;;;;12.20;4.45;;;29.40;1.00;;;;;;6195163;23;20609;-87
2023/09/11 10:40:53;;;;;;;5.75;4.18;;;29.40;1.00;;;;;;6216822;23;20212;-90
2023/09/11 10:43:18;;;;;;;22.25;6.00;;;29.40;1.00;;;;;;6193320;23;20226;-88
2023/09/11 10:45:44;;;;;;;11.20;4.75;;;29.40;1.00;;;;;;6216708;23;20229;-84
2023/09/11 10:48:31;;;;;;;11.27;4.50;;;29.50;1.00;;;;;;6216654;23;20597;-88
2023/09/11 10:51:00;;;;;;;12.32;5.13;;;29.50;1.00;;;;;;6196365;23;20207;-89
2023/09/11 10:53:29;;;;;;;10.70;4.88;;;29.60;1.00;;;;;;6215767;23;20157;-83
2023/09/11 10:56:00;;;;;;;7.05;4.10;;;29.60;1.00;;;;;;6217594;23;20228;-85
2023/09/11 10:58:29;;;;;;;9.05;4.45;;;29.70;1.00;;;;;;6219684;23;20149;-89
2023/09/11 11:01:12;;;;;;;8.70;4.30;;;29.80;1.00;;;;;;6196507;23;20184;-90
2023/09/11 11:03:37;;;;;;;7.63;4.82;;;29.80;1.00;;;;;;6198105;23;20144;-87
2023/09/11 11:06:06;;;;;;;9.48;5.03;;;29.80;1.00;;;;;;6192983;23;20244;-88
2023/09/11 11:08:36;;;;;;;7.20;4.43;;;29.80;1.00;;;;;;6194793;23;20149;-89
2023/09/11 11:11:03;;;;;;;13.80;5.38;;;29.80;1.00;;;;;;6201595;23;20157;-89
2023/09/11 11:13:29;;;;;;;6.82;4.47;;;29.80;1.00;;;;;;6196556;23;20149;-87
2023/09/11 11:16:18;;;;;;;9.93;4.40;;;29.90;1.00;;;;;;6219190;23;20176;-89
2023/09/11 11:18:46;;;;;;;7.47;5.05;;;30.00;1.00;;;;;;6192467;23;20153;-88
2023/09/11 11:21:14;;;;;;;7.88;4.60;;;30.00;1.00;;;;;;6195504;23;20173;-89
2023/09/11 11:24:00;;;;;;;12.75;4.80;;;30.00;1.00;;;;;;6194727;23;20153;-90
2023/09/11 11:26:27;;;;;;;7.93;4.75;;;30.00;1.00;;;;;;6220568;23;20173;-87
2023/09/11 11:28:52;;;;;;;14.27;5.10;;;30.10;1.00;;;;;;6195251;23;20149;-88
2023/09/11 11:31:20;;;;;;;11.45;5.30;;;29.60;1.00;;;;;;6221393;23;20167;-89
2023/09/11 11:33:47;;;;;;;22.60;5.20;;;30.30;1.00;;;;;;6220301;23;20160;-90
2023/09/11 11:36:14;;;;;;;12.13;5.68;;;30.30;1.00;;;;;;6196712;23;20177;-89
2023/09/11 11:38:46;;;;;;;14.90;5.32;;;30.30;1.00;;;;;;6218555;23;20168;-86
2023/09/11 11:41:13;;;;;;;11.68;4.93;;;30.30;1.00;;;;;;6215295;23;20280;-88
2023/09/11 11:43:42;;;;;;;9.30;5.13;;;30.30;1.00;;;;;;6213611;23;20180;-85
2023/09/11 11:46:10;;;;;;;12.85;5.00;;;30.30;1.00;;;;;;6191744;23;20195;-88
2023/09/11 11:48:37;;;;;;;15.45;5.45;;;30.50;1.00;;;;;;6216030;23;20235;-86
2023/09/11 11:51:05;;;;;;;10.95;5.28;;;30.60;1.00;;;;;;6216858;23;20243;-86
2023/09/11 11:53:32;;;;;;;10.88;4.72;;;30.70;1.00;;;;;;6190456;23;20168;-86
2023/09/11 11:56:04;;;;;;;7.70;5.32;;;30.90;1.00;;;;;;6215467;23;20177;-87
2023/09/11 11:58:31;;;;;;;9.77;4.90;;;31.00;1.00;;;;;;6198450;23;20148;-87
2023/09/11 12:01:07;;;;;;;10.18;4.95;;;31.10;1.00;;;;;;6188867;23;20206;-85
2023/09/11 12:03:54;;;;;;;11.50;6.07;;;31.00;1.00;;;;;;6188131;23;20235;-92
2023/09/11 12:06:23;;;;;;;18.20;5.38;;;31.10;1.00;;;;;;6188648;23;20188;-92
2023/09/11 12:08:50;;;;;;;9.93;5.55;;;31.10;1.00;;;;;;6193024;23;20228;-91
2023/09/11 12:11:16;;;;;;;8.10;4.97;;;31.20;1.00;;;;;;6216057;23;20168;-91
2023/09/11 12:13:42;;;;;;;15.07;5.30;;;31.10;1.00;;;;;;6189327;23;20243;-89
2023/09/11 12:16:10;;;;;;;15.02;5.10;;;31.10;1.00;;;;;;6216846;23;20187;-90
2023/09/11 12:18:40;;;;;;;10.02;4.38;;;31.20;1.00;;;;;;6191466;23;20168;-90
2023/09/11 12:21:08;;;;;;;8.52;5.13;;;31.20;1.00;;;;;;6216084;23;20165;-93
2023/09/11 12:23:34;;;;;;;10.55;5.47;;;31.40;1.00;;;;;;6217133;23;20184;-86
2023/09/11 12:26:06;;;;;;;9.60;5.05;;;31.30;1.00;;;;;;6216991;23;20629;-86
2023/09/11 12:28:37;;;;;;;11.27;5.35;;;31.40;1.00;;;;;;6189069;23;20160;-88
2023/09/11 12:31:07;;;;;;;8.50;5.28;;;31.40;1.00;;;;;;6165083;23;20160;-87
2023/09/11 12:33:40;;;;;;;17.38;6.20;;;31.40;1.00;;;;;;6188878;23;20149;-90
2023/09/11 12:36:17;;;;;;;9.25;5.50;;;31.10;1.00;;;;;;6167640;23;20180;-87
2023/09/11 12:38:46;;;;;;;11.45;5.78;;;31.60;1.00;;;;;;6191060;23;20180;-89
2023/09/11 12:41:18;;;;;;;10.02;5.93;;;31.60;1.00;;;;;;6190196;23;20189;-87
2023/09/11 12:43:45;;;;;;;9.35;5.90;;;32.50;1.00;;;;;;6219053;23;20149;-86
2023/09/11 12:46:11;;;;;;;15.88;5.47;;;31.60;1.00;;;;;;6216217;23;20263;-87
2023/09/11 12:48:42;;;;;;;10.88;5.72;;;31.60;1.00;;;;;;6221601;23;20157;-89